| Place | Name | Time | Raw score | Score |
|---|---|---|---|---|
| 1 | -DarkLlama- | 1:38.42 | 1,000 | 414 |
| 2 | Bile | 1:39.67 | 900 | 373 |
| 3 | JnvSor | 1:40.69 | 859 | 356 |
| 4 | Bridge | 1:43.17 | 827 | 342 |
| 5 | Ferreus | 1:44.42 | 800 | 331 |
| 6 | Kinix | 1:45.51 | 777 | 322 |
| 7 | slug ʕ●.●ʔ | 1:45.91 | 756 | 313 |
| 8 | Waonder | 1:47.03 | 736 | 305 |
| 9 | Kenaz | 1:47.28 | 718 | 297 |
| 10 | [RYC] Robin Yrvriff | 1:48.13 | 700 | 290 |
| 11 | Aotia | Qubic | 1:49.11 | 684 | 283 |
| 12 | Wourder | 1:49.94 | 669 | 277 |
| 13 | OMANEYE | 1:54.76 | 654 | 271 |
| 14 | Predatory_Balloon | 1:56.27 | 640 | 265 |
| 15 | Backgrounds' | 1:57.85 | 626 | 259 |
| 16 | Freud | 1:57.86 | 613 | 254 |
| 17 | hell | 1:59.33 | 600 | 248 |
| 18 | lefor0416 | 2:00.79 | 588 | 243 |
| 19 | Tribow | 2:01.19 | 576 | 238 |
| 20 | Zany | 2:02.37 | 565 | 234 |
| 21 | Californ1a | 2:02.58 | 553 | 229 |
| 22 | Vyz | 2:04.31 | 542 | 224 |
| 23 | Spennncer | 2:05.22 | 531 | 220 |
| 24 | Hotride | 2:05.96 | 521 | 216 |
| 25 | Hayden | 2:06.76 | 511 | 212 |
| 26 | Woody | 2:11.73 | 500 | 207 |
| 27 | McFolt | 2:12.43 | 491 | 203 |
| 28 | Loopsty | 2:12.95 | 481 | 199 |
| 29 | Sidewinder Fang | 2:12.98 | 471 | 195 |
| 30 | Žydras | 2:13.14 | 462 | 191 |
| 31 | Nitrium | 2:13.30 | 453 | 188 |
| 32 | Lol Bengals | 2:13.46 | 444 | 184 |
| 33 | Toodles The Pansy | 2:13.69 | 435 | 180 |
| 34 | futpib | 2:13.70 | 426 | 176 |
| 35 | Mei Rummy-chan | 2:13.72 | 417 | 173 |
| 36 | Teh№ [AMP] | 2:13.98 | 409 | 169 |
| 37 | Jay2a | 2:14.00 | 400 | 166 |
| 38 | Quirked-up White Boy | 2:14.01 | 392 | 162 |
| 39 | jason | 2:14.06 | 384 | 159 |
| 39 | levinv270 | 2:14.06 | 384 | 159 |
| 41 | Shady Inktail | 2:14.10 | 368 | 152 |
| 42 | Kataou | 2:14.17 | 360 | 149 |
| 43 | Sone Angel | 2:14.22 | 352 | 146 |
| 44 | Wolf | 2:14.25 | 345 | 143 |
| 45 | nrpsSword0 | 2:14.27 | 337 | 140 |
| 46 | Void Concept | 2:14.28 | 330 | 137 |
| 47 | rocketdriverexp | 2:14.31 | 322 | 133 |
| 48 | Lainfall | 2:14.38 | 315 | 130 |
| 49 | Roboraser | 2:14.39 | 308 | 128 |
| 50 | Azure Zakura | 2:14.49 | 300 | 124 |
| 51 | Drako | 2:14.54 | 293 | 121 |
| 52 | RetaliationGuy YT | 2:14.66 | 286 | 118 |
| 53 | i0nTempest | 2:14.67 | 279 | 116 |
| 54 | Xeno146 | 2:14.72 | 272 | 113 |
| 55 | bacon | 2:14.75 | 266 | 110 |
| 56 | posture check | 2:14.76 | 259 | 107 |
| 57 | tylercreamer | 2:14.80 | 252 | 104 |
| 58 | KnightBane | 2:14.81 | 246 | 102 |
| 59 | Yarimi | 2:14.83 | 239 | 99 |
| 60 | The Blue Fox | 2:14.93 | 232 | 96 |
| 61 | Saberik | 2:14.97 | 226 | 94 |
| 62 | CactusJack | 2:15.10 | 219 | 91 |
| 63 | ForlornStag | 2:15.13 | 213 | 88 |
| 64 | DanionVibit | 2:15.19 | 207 | 86 |
| 65 | JankyDingus | 2:15.20 | 200 | 83 |
| 66 | kashyyyke | 2:15.26 | 194 | 80 |
| 67 | MX26 | 2:15.29 | 188 | 78 |
| 68 | TheEPROM9 LaTeX | 2:15.32 | 182 | 75 |
| 69 | LittleKittyArtemis | 2:15.38 | 176 | 73 |
| 70 | Dark Star | 2:15.39 | 170 | 70 |
| 71 | JacquetheRipper | 2:15.43 | 164 | 68 |
| 72 | Ennik | 2:15.53 | 158 | 65 |
| 73 | GLUBBA | 2:15.54 | 152 | 63 |
| 74 | Papa M O I S T | 2:15.55 | 146 | 60 |
| 75 | ant | 2:15.60 | 140 | 58 |
| 76 | The Unusual Suspect | 2:15.62 | 134 | 55 |
| 77 | leafsiner | 2:15.63 | 129 | 53 |
| 78 | toniqe53 | 2:15.70 | 123 | 51 |
| 79 | Cooldeath6989 | 2:15.79 | 117 | 48 |
| 80 | FluffyTheZombii | 2:15.85 | 112 | 46 |
| 81 | concil | 2:15.87 | 106 | 44 |
| 82 | CrazyGamer742 | 2:15.93 | 100 | 41 |
| 83 | Achiro | 2:15.96 | 95 | 39 |
| 84 | SherryCoco♪♫ | 2:15.99 | 89 | 37 |
| 85 | RaiderZulu | 2:16.02 | 84 | 35 |
| 86 | abseth | 2:16.08 | 79 | 33 |
| 87 | Raxus | 2:16.09 | 73 | 30 |
| 88 | DaBlazeMann | 2:16.28 | 68 | 28 |
| 88 | Carlos | 2:16.28 | 68 | 28 |
| 88 | Axerol | 2:16.28 | 68 | 28 |
| 91 | Kitsu | 2:16.37 | 52 | 22 |
| 92 | Bogs of War | 2:16.38 | 47 | 19 |
| 93 | G5TNo2486 | 2:16.40 | 41 | 17 |
| 94 | Alrunes | 2:16.49 | 36 | 15 |
| 95 | Blue🌀 | 2:16.53 | 31 | 13 |
| 96 | gusforester | 2:16.58 | 26 | 11 |
| 97 | Mr. $7.63 | 2:16.60 | 21 | 9 |
| 98 | Thib | 2:16.61 | 16 | 7 |
| 99 | Curious Fish | 2:16.69 | 11 | 5 |
| 100 | le0n | 2:16.74 | 6 | 2 |
| 101 | TheMelonGod | 2:16.84 | 0 | 0 |
| 102 | darthbob555 | 2:16.86 | 0 | 0 |
| 103 | Epsilon_Knight | 2:16.87 | 0 | 0 |
| 104 | IllKIllU | 2:16.88 | 0 | 0 |
| 105 | Agent-Cryspy | 2:16.94 | 0 | 0 |
| 105 | Professor7357 | 2:16.94 | 0 | 0 |
| 107 | Neko | 2:17.07 | 0 | 0 |
| 108 | JONTY | 2:17.14 | 0 | 0 |
| 109 | Minecraft-pro | 2:17.19 | 0 | 0 |
| 110 | Frozen Dino | 2:17.22 | 0 | 0 |
| 111 | matheus paiva | 2:17.27 | 0 | 0 |
| 112 | U.R.S.S.O | 2:17.35 | 0 | 0 |
| 112 | EnVyUs- yng jit | 2:17.35 | 0 | 0 |
| 114 | baakstaff | 2:17.41 | 0 | 0 |
| 115 | Marwan Green Critter | 2:17.47 | 0 | 0 |
| 116 | PathToV1ctory | 2:17.52 | 0 | 0 |
| 117 | Fushiggy | 2:17.69 | 0 | 0 |
| 117 | Joakim230199 | 2:17.69 | 0 | 0 |
| 119 | Mr BoZeMan | 2:17.74 | 0 | 0 |
| 120 | Vandalite | 2:17.78 | 0 | 0 |
| 121 | Potat | 2:17.81 | 0 | 0 |
| 122 | Tem | 2:17.91 | 0 | 0 |
| 123 | delfiler | 2:17.94 | 0 | 0 |
| 124 | Manatee | 2:18.00 | 0 | 0 |
| 125 | loopysausage | 2:18.10 | 0 | 0 |
| 126 | TheWanderer05 | 2:18.17 | 0 | 0 |
| 127 | Cerberus14 | 2:18.28 | 0 | 0 |
| 128 | Tagg | 2:18.29 | 0 | 0 |
| 129 | Mikaho | 2:18.30 | 0 | 0 |
| 130 | CuddleStrike | 2:18.39 | 0 | 0 |
| 131 | BlacKat | 2:19.09 | 0 | 0 |
| 132 | SPEEDYSPEEDBOI | 2:19.15 | 0 | 0 |
| 133 | cfr34k | 2:19.19 | 0 | 0 |
| 134 | Spaceburger | 2:19.34 | 0 | 0 |
| 135 | Naikel [FR] | 2:19.39 | 0 | 0 |
| 136 | ENOLA | 2:19.43 | 0 | 0 |
| 137 | ErzoopaRTR | 2:19.57 | 0 | 0 |
| 138 | Creepersrock24Gaming | 2:19.92 | 0 | 0 |
| 139 | D2C | Chrisc02 | 2:20.11 | 0 | 0 |
| 140 | SlowScan | 2:20.20 | 0 | 0 |
| 141 | Mud | 2:20.30 | 0 | 0 |
| 142 | Somehow, the Chicken | 2:20.33 | 0 | 0 |
| 143 | XiQu3sT | 2:20.62 | 0 | 0 |
| 144 | Megacrafter127 | 2:20.71 | 0 | 0 |
| 145 | (ڱ.T.ƒ.Û) IAmMuToo | 2:20.74 | 0 | 0 |
| 146 | Monark10 | 2:20.78 | 0 | 0 |
| 147 | calne | 2:21.03 | 0 | 0 |
| 148 | WiteNite | 2:21.11 | 0 | 0 |
| 148 | Erio | 2:21.11 | 0 | 0 |
| 150 | Ebeta2 | 2:21.49 | 0 | 0 |
| 151 | Сосёна | 2:21.79 | 0 | 0 |
| 152 | Kalimbato | 2:21.88 | 0 | 0 |
| 153 | Paparazzi | 2:21.89 | 0 | 0 |
| 154 | EleventyB | 2:21.91 | 0 | 0 |
| 155 | HeroicShadow | 2:22.14 | 0 | 0 |
| 156 | PenguinMafia | 2:22.52 | 0 | 0 |
| 157 | Latapi | 2:22.59 | 0 | 0 |
| 158 | ~Astral Skies~ | 2:22.87 | 0 | 0 |
| 159 | Shamus | 2:22.92 | 0 | 0 |
| 160 | ImD | 2:22.96 | 0 | 0 |
| 161 | But we're both girls! | 2:22.97 | 0 | 0 |
| 162 | DasGerippe | 2:23.10 | 0 | 0 |
| 163 | Phazyo Knight | 2:23.15 | 0 | 0 |
| 164 | cnxracer | 2:24.00 | 0 | 0 |
| 165 | HJQLF | 2:24.02 | 0 | 0 |
| 166 | Fullthrough | 2:24.06 | 0 | 0 |
| 167 | Eagl3 | 2:24.08 | 0 | 0 |
| 168 | Edragon | 2:24.28 | 0 | 0 |
| 169 | ^1WᴀʀᴘWɪʀᴇ | 2:24.53 | 0 | 0 |
| 170 | kriz_chan | 2:24.61 | 0 | 0 |
| 171 | khrisround2 | 2:24.98 | 0 | 0 |
| 172 | Vyneci | 2:25.01 | 0 | 0 |
| 173 | Taro | 2:25.16 | 0 | 0 |
| 174 | Simon Evo | 2:25.29 | 0 | 0 |
| 175 | Iron_Angmar | 2:25.32 | 0 | 0 |
| 176 | Sensokaku | 2:25.40 | 0 | 0 |
| 177 | TP-N.co PC-118 B-10001110101 | 2:25.75 | 0 | 0 |
| 178 | Overlord | 2:25.81 | 0 | 0 |
| 179 | E0N | 2:25.95 | 0 | 0 |
| 180 | Agent Tahu | 2:26.02 | 0 | 0 |
| 181 | MyurrDurr | 2:26.07 | 0 | 0 |
| 182 | Hars | 2:26.15 | 0 | 0 |
| 183 | TajPilon | 2:26.20 | 0 | 0 |
| 184 | snakeeye98 | 2:26.25 | 0 | 0 |
| 185 | Rip | 2:26.26 | 0 | 0 |
| 186 | torcht | 2:26.37 | 0 | 0 |
| 187 | Sgt_Snowcone | 2:26.43 | 0 | 0 |
| 188 | LunarStarlight | 2:26.59 | 0 | 0 |
| 189 | DROCHEPOLK | 2:26.68 | 0 | 0 |
| 190 | PinesOfChaos | 2:26.73 | 0 | 0 |
| 191 | rbrules | 2:26.88 | 0 | 0 |
| 192 | DefenderOfHyrule | 2:26.91 | 0 | 0 |
| 193 | Sogram | 2:26.95 | 0 | 0 |
| 194 | Alex Chosen | 2:27.01 | 0 | 0 |
| 195 | Ksandriks | 2:27.13 | 0 | 0 |
| 196 | Dreigo | 2:27.17 | 0 | 0 |
| 197 | MP X10L | 2:27.39 | 0 | 0 |
| 198 | TheEccentric | 2:27.43 | 0 | 0 |
| 199 | Ion | 2:27.46 | 0 | 0 |
| 200 | jmdajm7 | 2:27.47 | 0 | 0 |
| 201 | A very silly man indeed | 2:27.49 | 0 | 0 |
| 201 | destiny.fate22 | 2:27.49 | 0 | 0 |
| 203 | TheEvilMidnightBomber | 2:27.68 | 0 | 0 |
| 204 | krizithy | 2:27.81 | 0 | 0 |
| 205 | Tomacawk | 2:27.85 | 0 | 0 |
| 206 | Tybalt the First | 2:28.13 | 0 | 0 |
| 207 | _powerliner | 2:28.15 | 0 | 0 |
| 208 | Dislin | 2:28.16 | 0 | 0 |
| 209 | Pelerin | 2:28.33 | 0 | 0 |
| 210 | Astrolight | 2:28.45 | 0 | 0 |
| 211 | PowerMeep | 2:28.54 | 0 | 0 |
| 211 | blue42u | 2:28.54 | 0 | 0 |
| 213 | LegoRJ35 | 2:28.92 | 0 | 0 |
| 214 | Rworqx | 2:28.98 | 0 | 0 |
| 214 | Pointed Mammal29 | 2:28.98 | 0 | 0 |
| 216 | silveraim7 | 2:29.12 | 0 | 0 |
| 217 | KingSpammerNerd | 2:29.17 | 0 | 0 |
| 218 | SherpieBoi | 2:29.45 | 0 | 0 |
| 219 | SecondBarrage | 2:29.54 | 0 | 0 |
| 220 | Osbob | 2:29.80 | 0 | 0 |
| 221 | Hugh man | 2:29.94 | 0 | 0 |
| 222 | Winter's Crescendo | 2:30.37 | 0 | 0 |
| 223 | RL | 2:30.42 | 0 | 0 |
| 224 | Monarch | 2:30.43 | 0 | 0 |
| 225 | Sky Captain | 2:30.45 | 0 | 0 |
| 226 | Western Ice Noodle | 2:30.64 | 0 | 0 |
| 227 | 25 минут кайфа | 2:30.70 | 0 | 0 |
| 228 | DecentM | 2:30.75 | 0 | 0 |
| 229 | Zephyrous | 2:30.92 | 0 | 0 |
| 230 | slyfoxlover | 2:30.94 | 0 | 0 |
| 231 | K9 | 2:31.16 | 0 | 0 |
| 232 | TheBritishAreComing | 2:31.49 | 0 | 0 |
| 233 | Sleazy Panda | 2:31.54 | 0 | 0 |
| 234 | Samn | 2:31.59 | 0 | 0 |
| 235 | Gage | 2:31.68 | 0 | 0 |
| 236 | GTNeon | 2:31.88 | 0 | 0 |
| 237 | Other XIX | 2:32.13 | 0 | 0 |
| 238 | The Good Doctor | 2:32.30 | 0 | 0 |
| 239 | FlyingToaster1 | 2:32.68 | 0 | 0 |
| 240 | 4onen | 2:32.71 | 0 | 0 |
| 241 | Scorage 🖏 | 2:32.87 | 0 | 0 |
| 242 | Sayrix | 2:32.91 | 0 | 0 |
| 243 | Гвоздь | 2:33.32 | 0 | 0 |
| 244 | kildert5 | 2:33.34 | 0 | 0 |
| 245 | Nico | 2:33.69 | 0 | 0 |
| 246 | Rudik | 2:33.87 | 0 | 0 |
| 247 | Jack-O | 2:33.88 | 0 | 0 |
| 248 | The Dude 61636 | 2:33.95 | 0 | 0 |
| 249 | itsukarine | 2:33.99 | 0 | 0 |
| 250 | Dimitri | 2:34.00 | 0 | 0 |
| 251 | tawnted | 2:34.06 | 0 | 0 |
| 252 | Portal Blinx | 2:34.23 | 0 | 0 |
| 253 | CodedCrow | 2:34.26 | 0 | 0 |
| 254 | Ivoryshovel | 2:34.33 | 0 | 0 |
| 254 | sizifov | 2:34.33 | 0 | 0 |
| 256 | Sperzieb00n | 2:34.43 | 0 | 0 |
| 257 | Makuta | 2:34.48 | 0 | 0 |
| 258 | EmeraldSlash | 2:34.51 | 0 | 0 |
| 259 | polybius99 | 2:34.56 | 0 | 0 |
| 260 | Corecii | 2:34.62 | 0 | 0 |
| 261 | Я КРИЧУ ГОЙДА! | 2:34.64 | 0 | 0 |
| 262 | TinFoilMkIV | 2:34.66 | 0 | 0 |
| 262 | Nick Elements | 2:34.66 | 0 | 0 |
| 264 | Phirebird27(Phoenix) | 2:34.70 | 0 | 0 |
| 265 | racing like a pisshorse | 2:34.73 | 0 | 0 |
| 266 | s00 | 2:35.05 | 0 | 0 |
| 267 | Blexyde | 2:35.07 | 0 | 0 |
| 268 | Louis Thau | 2:35.45 | 0 | 0 |
| 269 | fentanyl lover <3 | 2:35.49 | 0 | 0 |
| 270 | Semtex4ya | 2:35.50 | 0 | 0 |
| 271 | ZedAxiom | 2:35.55 | 0 | 0 |
| 272 | Hovex the Spider | 2:35.72 | 0 | 0 |
| 273 | Crespojazzman | 2:36.27 | 0 | 0 |
| 274 | bread | 2:36.30 | 0 | 0 |
| 275 | ecco | 2:36.33 | 0 | 0 |
| 276 | Xochipilli | 2:36.47 | 0 | 0 |
| 277 | jetknife | 2:37.09 | 0 | 0 |
| 278 | vorador2 | 2:37.27 | 0 | 0 |
| 279 | RenTide4 | 2:37.32 | 0 | 0 |
| 280 | Hayaweh | 2:37.49 | 0 | 0 |
| 281 | KABOOSE05 | 2:37.78 | 0 | 0 |
| 282 | Laith | 2:37.85 | 0 | 0 |
| 283 | Sgt. Giclette | 2:37.98 | 0 | 0 |
| 284 | GOOSE SATAN! | 2:38.09 | 0 | 0 |
| 285 | Mallow | 2:38.18 | 0 | 0 |
| 286 | Suspect | 2:38.32 | 0 | 0 |
| 287 | XLgeneral | 2:38.42 | 0 | 0 |
| 288 | Dragnar The Meme God | 2:39.24 | 0 | 0 |
| 288 | Zenixic | 2:39.24 | 0 | 0 |
| 290 | Gomorrha | 2:39.28 | 0 | 0 |
| 291 | Embylles | 2:39.37 | 0 | 0 |
| 292 | axelmorin78 | 2:39.42 | 0 | 0 |
| 293 | Prof. Pinwheel | 2:39.53 | 0 | 0 |
| 294 | Meda | 2:39.54 | 0 | 0 |
| 295 | James "Papa Het" Hetfield | 2:39.56 | 0 | 0 |
| 296 | [deleted] | 2:39.91 | 0 | 0 |
| 297 | Vert | 2:40.12 | 0 | 0 |
| 298 | Ninja Squirel | 2:40.28 | 0 | 0 |
| 299 | racercowboy | 2:40.41 | 0 | 0 |
| 299 | Lliane | 2:40.41 | 0 | 0 |
| 301 | BigToni | 2:40.53 | 0 | 0 |
| 302 | Dr. Weaver | 2:40.55 | 0 | 0 |
| 303 | Chronosock | 2:41.00 | 0 | 0 |
| 304 | Ellioty | 2:41.03 | 0 | 0 |
| 305 | FLUFYbluBUNYman | 2:41.06 | 0 | 0 |
| 306 | limb0 | 2:41.23 | 0 | 0 |
| 307 | Mamuuh | 2:41.48 | 0 | 0 |
| 308 | NeonChaosAwoo | 2:41.60 | 0 | 0 |
| 309 | Draco Solis | 2:41.71 | 0 | 0 |
| 310 | Aviionic | 2:42.21 | 0 | 0 |
| 311 | The Biggest [REDACTED] Ogre | 2:42.35 | 0 | 0 |
| 312 | BoreasTheIceGod | 2:42.47 | 0 | 0 |
| 313 | Ladybunne | 2:42.53 | 0 | 0 |
| 314 | Bananbulance | 2:42.64 | 0 | 0 |
| 315 | EndlessGaming | 2:42.79 | 0 | 0 |
| 316 | Macinteuch Plus | 2:42.88 | 0 | 0 |
| 317 | Alexis the Tech Witch | 2:42.95 | 0 | 0 |
| 318 | BigThirsty | 2:43.20 | 0 | 0 |
| 319 | Ktee | 2:43.21 | 0 | 0 |
| 320 | Alopex | 2:43.25 | 0 | 0 |
| 321 | Zane Wuffy | 2:43.28 | 0 | 0 |
| 322 | Foxx | 2:43.56 | 0 | 0 |
| 323 | REEper the Memebringer | 2:44.14 | 0 | 0 |
| 324 | Freezorg | 2:44.18 | 0 | 0 |
| 325 | ASnarkyOwl2 | 2:44.34 | 0 | 0 |
| 326 | Bistdocs | 2:44.56 | 0 | 0 |
| 327 | welkoozle | 2:45.02 | 0 | 0 |
| 328 | FabioTheTurtle | 2:45.16 | 0 | 0 |
| 329 | Rayder | 2:45.49 | 0 | 0 |
| 330 | Zebra | 2:45.59 | 0 | 0 |
| 330 | Red | 2:45.59 | 0 | 0 |
| 332 | echance01 | 2:46.18 | 0 | 0 |
| 333 | PH0NZ3 | 2:46.99 | 0 | 0 |
| 334 | Cypher | 2:47.02 | 0 | 0 |
| 335 | Sbev | 2:47.38 | 0 | 0 |
| 336 | AD10SZ | 2:47.42 | 0 | 0 |
| 337 | Indy1984 | 2:47.61 | 0 | 0 |
| 338 | notguts | 2:47.66 | 0 | 0 |
| 339 | GabrielLivesHere | 2:47.90 | 0 | 0 |
| 340 | J-Zeus | 2:47.93 | 0 | 0 |
| 341 | Rei | 2:48.16 | 0 | 0 |
| 342 | AngryHoboMob | 2:48.17 | 0 | 0 |
| 343 | F3 Force | 2:48.18 | 0 | 0 |
| 344 | SIGSTACKFAULT | 2:48.52 | 0 | 0 |
| 345 | TheGamingAnt55 | 2:48.71 | 0 | 0 |
| 346 | and kevin bacon | 2:48.72 | 0 | 0 |
| 347 | ONLY STRAIGHT IS NORMAL, FREAKS! | 2:48.78 | 0 | 0 |
| 348 | MachoDip [sd] | 2:48.96 | 0 | 0 |
| 349 | Spelunkadoodle | 2:49.44 | 0 | 0 |
| 350 | (っ◔◡◔)っ ♥ (EdgyBoiAl | 2:50.00 | 0 | 0 |
| 351 | Defiance_LLK | 2:50.09 | 0 | 0 |
| 352 | Luminous | 2:50.12 | 0 | 0 |
| 353 | Squeeeeeeeeps | 2:50.17 | 0 | 0 |
| 354 | Gloþ | 2:50.21 | 0 | 0 |
| 355 | 01011011010 | 2:50.36 | 0 | 0 |
| 356 | TerraHawk | 2:50.66 | 0 | 0 |
| 357 | Razgriez | 2:50.79 | 0 | 0 |
| 358 | kmanpoop | 2:50.89 | 0 | 0 |
| 359 | cerberus❤ | 2:51.15 | 0 | 0 |
| 360 | Zen | 2:51.38 | 0 | 0 |
| 361 | Pardalote | 2:51.57 | 0 | 0 |
| 361 | Captain Phlarper | 2:51.57 | 0 | 0 |
| 363 | Kashuzu | 2:51.77 | 0 | 0 |
| 364 | Echo | 2:52.01 | 0 | 0 |
| 365 | Breno_SO | 2:52.33 | 0 | 0 |
| 366 | Bat Country | 2:52.91 | 0 | 0 |
| 367 | BulldozerHW | 2:53.14 | 0 | 0 |
| 368 | Qioury | 2:53.41 | 0 | 0 |
| 369 | Boucoque | 2:53.57 | 0 | 0 |
| 370 | Stormtrooper | 2:53.62 | 0 | 0 |
| 371 | etam | 2:53.97 | 0 | 0 |
| 372 | Hômɓer | 2:54.21 | 0 | 0 |
| 373 | The Ol' Razzle Dazzle | 2:54.52 | 0 | 0 |
| 374 | Keiyo | 2:54.56 | 0 | 0 |
| 375 | danny1234331 | 2:54.62 | 0 | 0 |
| 376 | [deleted] | 2:54.79 | 0 | 0 |
| 377 | Ryuki | 2:54.90 | 0 | 0 |
| 378 | Bios | 2:55.12 | 0 | 0 |
| 379 | Ahhrealpeople | 2:55.20 | 0 | 0 |
| 380 | BluntButters | 2:55.44 | 0 | 0 |
| 381 | DOOM | 2:55.51 | 0 | 0 |
| 382 | onyxglow | 2:55.55 | 0 | 0 |
| 383 | fats and poors disrespecter | 2:55.65 | 0 | 0 |
| 384 | [NPGC]SnoopCZ | 2:55.86 | 0 | 0 |
| 385 | Negaprion | 2:56.02 | 0 | 0 |
| 386 | Ashton_bro | 2:56.14 | 0 | 0 |
| 387 | GhostlyCryptid | 2:56.79 | 0 | 0 |
| 388 | Toxicologixal | 2:57.03 | 0 | 0 |
| 389 | Azzmurr | 2:57.25 | 0 | 0 |
| 390 | Symon | 2:57.41 | 0 | 0 |
| 391 | The [SVK] | 2:57.42 | 0 | 0 |
| 392 | minionmom82 | 2:57.44 | 0 | 0 |
| 393 | _BrightDarkness_ | 2:57.55 | 0 | 0 |
| 394 | Co-il | 2:57.68 | 0 | 0 |
| 395 | Old Bastard | 2:57.74 | 0 | 0 |
| 396 | Maushaus | 2:57.88 | 0 | 0 |
| 397 | Blushy Wushy | 2:57.91 | 0 | 0 |
| 398 | Ginormous Johnson | 2:58.16 | 0 | 0 |
| 399 | [deleted] | 2:59.16 | 0 | 0 |
| 400 | Krispy | 3:00.10 | 0 | 0 |
| 401 | M E L L O W | 3:00.23 | 0 | 0 |
| 402 | endlesstabby | 3:00.39 | 0 | 0 |
| 403 | Terrapin | 3:00.47 | 0 | 0 |
| 404 | Dig | 3:00.56 | 0 | 0 |
| 405 | Readek | 3:01.08 | 0 | 0 |
| 406 | Pompous Whale | 3:01.15 | 0 | 0 |
| 407 | CeruleanAzura | 3:01.29 | 0 | 0 |
| 408 | Gmor-4 | 3:01.58 | 0 | 0 |
| 409 | Pherouzs | 3:01.64 | 0 | 0 |
| 410 | GabigoG | 3:01.66 | 0 | 0 |
| 411 | spires | 3:01.95 | 0 | 0 |
| 412 | puple | 3:02.07 | 0 | 0 |
| 413 | dreifachpunkt. | 3:02.28 | 0 | 0 |
| 414 | tuerKAS | 3:02.66 | 0 | 0 |
| 415 | LissomChunk | 3:02.78 | 0 | 0 |
| 416 | CrazyMaurice120 | 3:03.08 | 0 | 0 |
| 417 | Hudbus | 3:03.16 | 0 | 0 |
| 418 | Reconik | 3:03.18 | 0 | 0 |
| 419 | MAT D.R.⎛⎝≥⏝⏝≤⎠⎞ | 3:03.28 | 0 | 0 |
| 420 | AlienAnthony | 3:03.58 | 0 | 0 |
| 421 | Shroom | 3:03.59 | 0 | 0 |
| 422 | AlveKatt | 3:04.05 | 0 | 0 |
| 423 | samson13 | 3:04.12 | 0 | 0 |
| 424 | Send help | 3:04.16 | 0 | 0 |
| 425 | Hell+ | 3:04.17 | 0 | 0 |
| 426 | Anvilanche | 3:04.31 | 0 | 0 |
| 427 | Cptnbean | 3:04.41 | 0 | 0 |
| 428 | cheif22 | 3:04.77 | 0 | 0 |
| 429 | Rich Uncle Pennybags | 3:05.74 | 0 | 0 |
| 430 | Roggee | 3:05.82 | 0 | 0 |
| 431 | snowstate | 3:05.90 | 0 | 0 |
| 432 | John Fortress 2 | 3:05.93 | 0 | 0 |
| 433 | pcl219 | 3:06.04 | 0 | 0 |
| 434 | Verity | 3:06.05 | 0 | 0 |
| 435 | cas8002 | 3:06.20 | 0 | 0 |
| 436 | Sunchipp Games | 3:06.40 | 0 | 0 |
| 437 | Moodeng | 3:07.10 | 0 | 0 |
| 438 | raviolifun | 3:07.40 | 0 | 0 |
| 439 | Jake.cx | 3:07.55 | 0 | 0 |
| 440 | P0LL0 | 3:07.59 | 0 | 0 |
| 441 | Toats | 3:07.62 | 0 | 0 |
| 442 | syntacks | 3:07.74 | 0 | 0 |
| 443 | Myles from Tomorrowland | 3:07.80 | 0 | 0 |
| 444 | MJV2361 | 3:07.93 | 0 | 0 |
| 445 | Eleven27 | 3:08.20 | 0 | 0 |
| 446 | Jowsen | 3:08.46 | 0 | 0 |
| 447 | 76561198295712869 | 3:08.62 | 0 | 0 |
| 448 | D0HERRITT | 3:09.47 | 0 | 0 |
| 449 | PootisMayo | 3:10.19 | 0 | 0 |
| 450 | SpaceType-EXE | 3:10.26 | 0 | 0 |
| 451 | LachenJager | 3:10.63 | 0 | 0 |
| 452 | Warriot | 3:10.84 | 0 | 0 |
| 453 | IsoSheepington | 3:10.85 | 0 | 0 |
| 454 | [REDACTED] | 3:10.89 | 0 | 0 |
| 455 | Wehavecookies53 | 3:10.90 | 0 | 0 |
| 456 | Coffee | 3:11.45 | 0 | 0 |
| 457 | GekoKid | 3:11.78 | 0 | 0 |
| 458 | Sibsen | 3:11.89 | 0 | 0 |
| 459 | Eshael | 3:12.11 | 0 | 0 |
| 460 | SneakyBombsuit | 3:12.20 | 0 | 0 |
| 461 | Agent Starlight | 3:12.43 | 0 | 0 |
| 462 | Limola | 3:12.67 | 0 | 0 |
| 463 | ruu | 3:13.25 | 0 | 0 |
| 464 | S.Kappelmann | 3:13.28 | 0 | 0 |
| 465 | BertFe | 3:13.30 | 0 | 0 |
| 466 | iPhone 6s Plus | 3:13.40 | 0 | 0 |
| 467 | BuzZoiD | 3:13.45 | 0 | 0 |
| 468 | Luxora | 3:13.47 | 0 | 0 |
| 469 | Me0wzipan | 3:13.96 | 0 | 0 |
| 470 | e⁻ | 3:14.14 | 0 | 0 |
| 471 | SuperSneakSheep | 3:14.73 | 0 | 0 |
| 472 | eriyo | 3:14.87 | 0 | 0 |
| 473 | Tennebep | 3:15.39 | 0 | 0 |
| 474 | delladriv | 3:15.62 | 0 | 0 |
| 475 | STStarkMB | 3:15.63 | 0 | 0 |
| 476 | Arika Springfield | 3:15.83 | 0 | 0 |
| 477 | Michael_MaxPower | 3:16.08 | 0 | 0 |
| 478 | EnderKill98 | 3:16.14 | 0 | 0 |
| 479 | A Very Angy Opossum | 3:16.20 | 0 | 0 |
| 480 | THEDINKY | 3:16.21 | 0 | 0 |
| 481 | shamshel | 3:16.23 | 0 | 0 |
| 482 | Xandrak | 3:16.72 | 0 | 0 |
| 483 | lav. | 3:16.76 | 0 | 0 |
| 484 | Weasel Boy | 3:16.91 | 0 | 0 |
| 485 | Bratalix | 3:16.95 | 0 | 0 |
| 486 | Swizy | 3:17.01 | 0 | 0 |
| 487 | DEMON | 3:17.11 | 0 | 0 |
| 488 | Lezyes | 3:17.27 | 0 | 0 |
| 489 | duplexkiller | 3:17.90 | 0 | 0 |
| 490 | Fluffle Puff | 3:18.02 | 0 | 0 |
| 491 | PlatinumAstra | 3:18.12 | 0 | 0 |
| 492 | DarkShadow | 3:18.14 | 0 | 0 |
| 493 | VI_fizz | 3:18.49 | 0 | 0 |
| 494 | SW18 | 3:18.68 | 0 | 0 |
| 495 | cocob4 | 3:18.75 | 0 | 0 |
| 496 | Maagnatism | 3:18.77 | 0 | 0 |
| 497 | Jos | 3:19.25 | 0 | 0 |
| 498 | VenomGhost | 3:19.37 | 0 | 0 |
| 499 | Charlotte | 3:19.50 | 0 | 0 |
| 500 | EV | 3:19.64 | 0 | 0 |
| 501 | pawper | 3:19.66 | 0 | 0 |
| 502 | KillerHawk | 3:20.04 | 0 | 0 |
| 503 | Mr Chedda | 3:20.05 | 0 | 0 |
| 504 | Grönk | 3:20.66 | 0 | 0 |
| 505 | HardRoar|Lionhead | 3:21.03 | 0 | 0 |
| 506 | Lore maker | 3:21.33 | 0 | 0 |
| 507 | 𝗨𝗻𝗰𝗹𝗘𝗰𝗮𝗸𝗲 | 3:21.49 | 0 | 0 |
| 508 | Piiec | 3:22.03 | 0 | 0 |
| 509 | delicious Croutons | 3:22.28 | 0 | 0 |
| 510 | DigiDragon64 | 3:22.85 | 0 | 0 |
| 511 | Hyperactive Melon | 3:23.04 | 0 | 0 |
| 512 | Adrimg_rider | 3:23.08 | 0 | 0 |
| 513 | ManjaroLinuxGmr | 3:23.30 | 0 | 0 |
| 514 | The Good Gaming Dragon | 3:23.46 | 0 | 0 |
| 515 | Dominican Tene | 3:23.95 | 0 | 0 |
| 516 | Xiooo | 3:24.05 | 0 | 0 |
| 517 | Bram | 3:24.13 | 0 | 0 |
| 518 | Shigbeard | 3:24.34 | 0 | 0 |
| 519 | Koros Antavo | 3:24.40 | 0 | 0 |
| 520 | shrümii | 3:24.51 | 0 | 0 |
| 521 | gslayer14 | 3:24.88 | 0 | 0 |
| 522 | Reus | 3:25.05 | 0 | 0 |
| 523 | A̶͓̓z̷͓̍ũ̴̩r̷͔͐e̴ | 3:25.49 | 0 | 0 |
| 524 | Biscuit | 3:25.68 | 0 | 0 |
| 525 | skuzzzy | 3:25.82 | 0 | 0 |
| 526 | Kypar | 3:25.84 | 0 | 0 |
| 527 | Marrs | 3:26.02 | 0 | 0 |
| 528 | LelouchXV3 | 3:26.08 | 0 | 0 |
| 529 | Daryl Nottage | 3:26.57 | 0 | 0 |
| 530 | Ruinoterapevt | 3:26.66 | 0 | 0 |
| 531 | Queritz | 3:26.72 | 0 | 0 |
| 532 | Masta Platypus | 3:26.74 | 0 | 0 |
| 533 | DELTA | 3:27.00 | 0 | 0 |
| 534 | BlackOnyx262 | 3:27.14 | 0 | 0 |
| 535 | Firestix | 3:27.55 | 0 | 0 |
| 536 | Mr.Derp | 3:27.69 | 0 | 0 |
| 537 | Nekres | 3:27.74 | 0 | 0 |
| 538 | DaHam | 3:28.36 | 0 | 0 |
| 539 | kischiman | 3:28.87 | 0 | 0 |
| 540 | WindingAlmond | 3:28.96 | 0 | 0 |
| 541 | Zannu | 3:29.00 | 0 | 0 |
| 542 | Octahedron | 3:29.30 | 0 | 0 |
| 543 | ^jnz | 3:29.58 | 0 | 0 |
| 544 | RyuKyotei | 3:29.72 | 0 | 0 |
| 545 | Nagrom | 3:29.77 | 0 | 0 |
| 546 | Ken | 3:30.11 | 0 | 0 |
| 547 | DeedleFake | 3:30.31 | 0 | 0 |
| 548 | NoteHeart TF R U DOIN | 3:30.36 | 0 | 0 |
| 549 | Boomer McGeezer | 3:30.81 | 0 | 0 |
| 550 | flaniert gerne | 3:31.26 | 0 | 0 |
| 551 | RPTC | 3:31.56 | 0 | 0 |
| 552 | smug_twingo | 3:32.41 | 0 | 0 |
| 553 | fischpferd | 3:33.05 | 0 | 0 |
| 554 | Blahaj Blast | 3:34.00 | 0 | 0 |
| 555 | Mr. Bird | 3:34.08 | 0 | 0 |
| 556 | Iris | 3:34.35 | 0 | 0 |
| 557 | HypnoticHawk | 3:34.47 | 0 | 0 |
| 558 | Nonoreo | 3:34.53 | 0 | 0 |
| 559 | zafaka | 3:34.93 | 0 | 0 |
| 560 | wzerd | 3:35.03 | 0 | 0 |
| 561 | StrongBad | 3:35.34 | 0 | 0 |
| 562 | I'm Gay | 3:35.54 | 0 | 0 |
| 563 | yassuryGM | 3:35.56 | 0 | 0 |
| 564 | Gabito264 | 3:36.19 | 0 | 0 |
| 565 | BurntCornFlakes | 3:36.33 | 0 | 0 |
| 566 | Zezinho123 | 3:36.43 | 0 | 0 |
| 567 | javi | 3:36.73 | 0 | 0 |
| 568 | Buff Nuts | 3:37.66 | 0 | 0 |
| 569 | Inzarin | 3:37.75 | 0 | 0 |
| 570 | JokersBullet12 | 3:37.81 | 0 | 0 |
| 571 | Michael in the Middle | 3:38.41 | 0 | 0 |
| 572 | Reaster | 3:38.77 | 0 | 0 |
| 573 | Athice | 3:39.06 | 0 | 0 |
| 574 | Azur-Lane | 3:39.07 | 0 | 0 |
| 575 | Spark | 3:39.76 | 0 | 0 |
| 576 | Nomad | 3:40.60 | 0 | 0 |
| 577 | Moose | 3:40.80 | 0 | 0 |
| 578 | Kleimann | 3:41.31 | 0 | 0 |
| 579 | Misuri | 3:41.49 | 0 | 0 |
| 580 | IzPaladin | 3:41.70 | 0 | 0 |
| 581 | Bagga | 3:42.51 | 0 | 0 |
| 582 | rz zombie | 3:43.94 | 0 | 0 |
| 583 | Adventure Buddy | 3:44.16 | 0 | 0 |
| 584 | Frizzybman11 | 3:44.76 | 0 | 0 |
| 585 | The Brightest Star | 3:44.80 | 0 | 0 |
| 586 | TheDeco | 3:46.92 | 0 | 0 |
| 587 | Richard | 3:47.17 | 0 | 0 |
| 588 | Redx | 3:47.30 | 0 | 0 |
| 589 | Panfex | 3:47.44 | 0 | 0 |
| 590 | ketikidistv | 3:48.38 | 0 | 0 |
| 591 | Totally Competent Device | 3:48.72 | 0 | 0 |
| 592 | Pureception | 3:49.29 | 0 | 0 |
| 593 | Helios | 3:49.43 | 0 | 0 |
| 594 | Alexkurts | 3:49.66 | 0 | 0 |
| 595 | Noah | 3:49.77 | 0 | 0 |
| 596 | Noah | 3:50.00 | 0 | 0 |
| 597 | energize | 3:50.02 | 0 | 0 |
| 598 | Rian (The Schmaltzy Cynic) | 3:50.12 | 0 | 0 |
| 599 | Beemur | 3:50.49 | 0 | 0 |
| 600 | SpongeJosh | 3:50.60 | 0 | 0 |
| 601 | Dinkleberg | 3:50.71 | 0 | 0 |
| 602 | TheDukeOfTaco | 3:50.89 | 0 | 0 |
| 603 | LinuxVersion | 3:51.18 | 0 | 0 |
| 604 | Buttlet | 3:51.50 | 0 | 0 |
| 605 | InsAnarchist | 3:51.73 | 0 | 0 |
| 606 | Rewnie | 3:51.99 | 0 | 0 |
| 607 | RUBICON ISN'T YOURS TO CONQUER | 3:52.26 | 0 | 0 |
| 608 | Tschokii | 3:52.27 | 0 | 0 |
| 609 | Apocalyptic Bunny | 3:53.92 | 0 | 0 |
| 610 | .png | 3:54.98 | 0 | 0 |
| 611 | Shinrararara | 3:55.26 | 0 | 0 |
| 612 | Anderdingus | 3:55.91 | 0 | 0 |
| 613 | TWL | 3:56.00 | 0 | 0 |
| 614 | BrandonK-TN | 3:56.09 | 0 | 0 |
| 615 | Zector1114 | 3:56.62 | 0 | 0 |
| 616 | Big Kahuna | 3:57.57 | 0 | 0 |
| 617 | Kyle Watson | 3:57.64 | 0 | 0 |
| 618 | Flatulent Seagull | 3:57.88 | 0 | 0 |
| 619 | Turavis | 3:58.13 | 0 | 0 |
| 620 | Lassi | 3:59.06 | 0 | 0 |
| 621 | Cheeseburger Charles | 3:59.16 | 0 | 0 |
| 622 | Lethologica7 | 4:00.21 | 0 | 0 |
| 623 | Ribbitt | 4:00.52 | 0 | 0 |
| 624 | Silver | 4:00.60 | 0 | 0 |
| 625 | RisingHERO19 | 4:00.68 | 0 | 0 |
| 626 | guilherme giuseppe | 4:01.40 | 0 | 0 |
| 627 | Phoenix0891 | 4:01.62 | 0 | 0 |
| 628 | Shjohn | 4:01.81 | 0 | 0 |
| 629 | Ashley The Candywolf | 4:02.02 | 0 | 0 |
| 630 | Poofoo | 4:02.54 | 0 | 0 |
| 631 | JohnCorby | 4:02.95 | 0 | 0 |
| 632 | Bubenkolben | 4:03.30 | 0 | 0 |
| 633 | JessInTheShell | 4:03.99 | 0 | 0 |
| 634 | Final | 4:08.48 | 0 | 0 |
| 635 | Chase | 4:08.79 | 0 | 0 |
| 636 | Lysh | 4:09.01 | 0 | 0 |
| 637 | Mathias | 4:09.16 | 0 | 0 |
| 638 | Fz0077 | 4:09.39 | 0 | 0 |
| 639 | i_sandwhich | 4:09.70 | 0 | 0 |
| 640 | Felynka | 4:11.20 | 0 | 0 |
| 641 | Critical WEASEL | 4:11.46 | 0 | 0 |
| 642 | pg9000 | 4:11.69 | 0 | 0 |
| 643 | uncle allah | 4:11.80 | 0 | 0 |
| 644 | VARMINT223 | 4:12.14 | 0 | 0 |
| 645 | Gecko95 | 4:12.68 | 0 | 0 |
| 646 | NetaNeta | 4:13.04 | 0 | 0 |
| 647 | Sorcen_Nauki | 4:13.76 | 0 | 0 |
| 648 | sevenofnone | 4:14.98 | 0 | 0 |
| 649 | |CoD| Shadow | 4:15.24 | 0 | 0 |
| 650 | LemonIsland | 4:15.58 | 0 | 0 |
| 651 | SunsetBAE | 4:15.91 | 0 | 0 |
| 652 | SC000TER | 4:15.92 | 0 | 0 |
| 653 | Me an intellectual | 4:16.08 | 0 | 0 |
| 654 | Basement Security | 4:16.67 | 0 | 0 |
| 655 | Dingo | 4:17.20 | 0 | 0 |
| 656 | Zodijackyl Light | 4:17.40 | 0 | 0 |
| 657 | Hertta | 4:17.62 | 0 | 0 |
| 658 | Seshiruseth | 4:17.74 | 0 | 0 |
| 659 | Warkin Iskander Volselli | 4:19.30 | 0 | 0 |
| 660 | Mr. Doon | 4:19.92 | 0 | 0 |
| 661 | Silverstop | 4:20.09 | 0 | 0 |
| 662 | B-VOL | 4:22.28 | 0 | 0 |
| 663 | krakentoa | 4:22.36 | 0 | 0 |
| 664 | Futuramau | 4:22.55 | 0 | 0 |
| 665 | Nadoc | 4:22.79 | 0 | 0 |
| 666 | .present; | 4:22.95 | 0 | 0 |
| 667 | starhorder | 4:23.29 | 0 | 0 |
| 668 | parzivalls | 4:24.37 | 0 | 0 |
| 669 | DobreBobre | 4:24.46 | 0 | 0 |
| 670 | Blood Rush914 | 4:25.70 | 0 | 0 |
| 671 | LpDanilo05 | 4:25.93 | 0 | 0 |
| 672 | BluntQuotient | 4:25.99 | 0 | 0 |
| 673 | ꧁๖ۣۜ Seveneight ๖ۣۜ꧂ | 4:26.00 | 0 | 0 |
| 674 | Raze Silverwing | 4:26.25 | 0 | 0 |
| 675 | Adm | 4:26.34 | 0 | 0 |
| 676 | Loys Nuva | 4:26.89 | 0 | 0 |
| 677 | real | 4:28.16 | 0 | 0 |
| 678 | squaredanced | 4:28.19 | 0 | 0 |
| 679 | frgo | 4:28.41 | 0 | 0 |
| 680 | Torrle | 4:28.89 | 0 | 0 |
| 681 | [deleted] | 4:30.63 | 0 | 0 |
| 682 | Velimor | 4:30.85 | 0 | 0 |
| 683 | !NFiN!TY | 4:31.60 | 0 | 0 |
| 684 | Raisinbran | 4:31.62 | 0 | 0 |
| 685 | TS_Mind_Swept | 4:31.73 | 0 | 0 |
| 686 | Vortexesz | 4:33.72 | 0 | 0 |
| 687 | MrT00t | 4:35.04 | 0 | 0 |
| 688 | B'neppe | 4:35.14 | 0 | 0 |
| 689 | BryhanFine | 4:35.58 | 0 | 0 |
| 690 | Ape Tea | 4:36.90 | 0 | 0 |
| 691 | KeFFo | 4:37.56 | 0 | 0 |
| 692 | Metromari | 4:37.90 | 0 | 0 |
| 693 | ShadowWolf | 4:41.43 | 0 | 0 |
| 694 | Lady Yuna Yosha | 4:44.30 | 0 | 0 |
| 695 | Krimsonmask | 4:44.67 | 0 | 0 |
| 696 | Z0ych | 4:45.73 | 0 | 0 |
| 697 | Jules | 4:45.99 | 0 | 0 |
| 698 | CrossRoadStyx | 4:46.51 | 0 | 0 |
| 699 | TheHimta | 4:46.64 | 0 | 0 |
| 700 | Durnehviir_ | 4:47.57 | 0 | 0 |
| 701 | ALIENMAN | 4:48.01 | 0 | 0 |
| 702 | R1ow1ls | 4:48.29 | 0 | 0 |
| 703 | Ceddi | 4:49.09 | 0 | 0 |
| 704 | Lag1ttaja | 4:49.79 | 0 | 0 |
| 705 | ReallyDumbFox | 4:50.23 | 0 | 0 |
| 706 | Hénok | 4:50.54 | 0 | 0 |
| 707 | NailmasterKsy | 4:50.87 | 0 | 0 |
| 708 | ThumpieBunnyEve | 4:51.07 | 0 | 0 |
| 709 | xj4966 | 4:51.25 | 0 | 0 |
| 710 | RΞTRΘSPΞC | 4:51.61 | 0 | 0 |
| 711 | Eophen | 4:51.94 | 0 | 0 |
| 712 | Zacksly | 4:52.88 | 0 | 0 |
| 713 | GD Taylor | 4:53.53 | 0 | 0 |
| 714 | Blacky Stranger | 4:54.74 | 0 | 0 |
| 715 | Knight Hound | 4:54.90 | 0 | 0 |
| 716 | gageparris1 | 4:55.92 | 0 | 0 |
| 717 | SKELETONTV | 4:56.93 | 0 | 0 |
| 718 | Zerith | 4:57.05 | 0 | 0 |
| 719 | Happy3Head | 4:59.38 | 0 | 0 |
| 720 | Reinforce Virta | 4:59.48 | 0 | 0 |
| 721 | kill everyone and leave | 5:00.64 | 0 | 0 |
| 722 | SparkyCrusader | 5:01.65 | 0 | 0 |
| 723 | Rat with Gun | 5:01.67 | 0 | 0 |
| 724 | Fireblanket | 5:03.32 | 0 | 0 |
| 725 | The Grimspeeder | 5:04.19 | 0 | 0 |
| 726 | Kalabasa | 5:05.78 | 0 | 0 |
| 727 | Diamond_Dynamo | 5:06.17 | 0 | 0 |
| 728 | Ozymandias | 5:08.16 | 0 | 0 |
| 729 | BlazeHedgehog | 5:14.88 | 0 | 0 |
| 730 | Hiddelgreyk | 5:15.69 | 0 | 0 |
| 731 | yarside | 5:15.92 | 0 | 0 |
| 732 | MTM | 5:16.05 | 0 | 0 |
| 733 | Voltaic | 5:17.65 | 0 | 0 |
| 734 | Cabanery👾 | 5:17.72 | 0 | 0 |
| 735 | TheKillingJoke | 5:18.52 | 0 | 0 |
| 736 | LupinRed | 5:18.78 | 0 | 0 |
| 737 | FoxHound422 | 5:19.11 | 0 | 0 |
| 738 | SSaucilito | 5:19.24 | 0 | 0 |
| 739 | Jiboia Austríaca | 5:19.63 | 0 | 0 |
| 740 | Darkmomo Draconia™ | 5:20.06 | 0 | 0 |
| 741 | Soupbowl | 5:21.87 | 0 | 0 |
| 742 | Giant From The East | 5:30.01 | 0 | 0 |
| 743 | NoteKlix | 5:30.61 | 0 | 0 |
| 744 | Usernamehere | 5:31.65 | 0 | 0 |
| 745 | ^1Juggernaut | 5:31.66 | 0 | 0 |
| 746 | porta2note | 5:32.52 | 0 | 0 |
| 747 | ILikeBigBoats | 5:32.76 | 0 | 0 |
| 748 | miro. | 5:33.61 | 0 | 0 |
| 749 | Phoenixstorm | 5:33.63 | 0 | 0 |
| 750 | Clown (Derogatory) | 5:34.30 | 0 | 0 |
| 751 | FlangEG | 5:35.04 | 0 | 0 |
| 752 | HappyFeet | 5:35.19 | 0 | 0 |
| 753 | BlurElGamer | 5:35.88 | 0 | 0 |
| 754 | Shaka | 5:39.55 | 0 | 0 |
| 755 | Tremor | 5:40.58 | 0 | 0 |
| 756 | Flamingueax | 5:42.33 | 0 | 0 |
| 757 | ALT 2.0 | 5:42.50 | 0 | 0 |
| 758 | Твой Господин | 5:43.88 | 0 | 0 |
| 759 | Cookie | 5:45.70 | 0 | 0 |
| 760 | Asclepius | 5:46.61 | 0 | 0 |
| 761 | VScratch | 5:49.85 | 0 | 0 |
| 762 | ZeroTwo | 5:52.43 | 0 | 0 |
| 763 | Zombiebot King | 5:52.94 | 0 | 0 |
| 764 | Krash | 5:56.26 | 0 | 0 |
| 765 | MrRebelutionary | 5:58.68 | 0 | 0 |
| 766 | meziter260 | 5:59.87 | 0 | 0 |
| 767 | Invalid-user | 6:01.67 | 0 | 0 |
| 768 | Archangel † | 6:05.23 | 0 | 0 |
| 769 | The Cartographer | 6:12.40 | 0 | 0 |
| 770 | JK | 6:13.22 | 0 | 0 |
| 771 | Poptarticus | 6:14.11 | 0 | 0 |
| 772 | skiefalcorr | 6:16.59 | 0 | 0 |
| 773 | AgentDaedalus | 6:16.86 | 0 | 0 |
| 774 | absurdich | 6:17.63 | 0 | 0 |
| 775 | Strafe | 6:18.24 | 0 | 0 |
| 776 | Sunnydan | 6:24.62 | 0 | 0 |
| 777 | Llama Neeson | 6:26.07 | 0 | 0 |
| 778 | rodrox_24 | 6:27.02 | 0 | 0 |
| 779 | Buluack | 6:27.22 | 0 | 0 |
| 780 | frankzirk | 6:28.55 | 0 | 0 |
| 781 | Commutator | 6:33.10 | 0 | 0 |
| 782 | jonesysound | 6:33.24 | 0 | 0 |
| 783 | Biowizard | 6:34.43 | 0 | 0 |
| 784 | NBA Shounen | 6:38.99 | 0 | 0 |
| 785 | Sarison | 6:40.64 | 0 | 0 |
| 786 | xander | 6:43.76 | 0 | 0 |
| 787 | DeathFish | 6:44.47 | 0 | 0 |
| 788 | GlutenMann | 6:47.62 | 0 | 0 |
| 789 | El oh el | 6:47.74 | 0 | 0 |
| 790 | Tojin_ | 6:55.70 | 0 | 0 |
| 791 | Faize | 6:56.68 | 0 | 0 |
| 792 | GodEmperorDoge | 7:06.28 | 0 | 0 |
| 793 | Frimium | 7:08.86 | 0 | 0 |
| 794 | Tried ur Besto | 7:16.94 | 0 | 0 |
| 795 | Dr. Spliffou | 7:18.25 | 0 | 0 |
| 796 | JunosGone | 7:25.28 | 0 | 0 |
| 797 | Razand | 7:34.38 | 0 | 0 |
| 798 | king.bai64 | 7:35.41 | 0 | 0 |
| 799 | Psi Cat | 7:48.22 | 0 | 0 |
| 800 | Техножрущий | 7:48.42 | 0 | 0 |
| 801 | Asura Kt | 7:49.27 | 0 | 0 |
| 802 | no_escape | 7:50.31 | 0 | 0 |
| 803 | mitarasi | 7:51.00 | 0 | 0 |
| 804 | ReverseUno | 8:05.60 | 0 | 0 |
| 805 | FrostCorp | 8:06.76 | 0 | 0 |
| 806 | nothingisomething | 8:26.24 | 0 | 0 |
| 807 | BBQchkn | 8:35.48 | 0 | 0 |
| 808 | Axle Dawn Dusk | 9:29.73 | 0 | 0 |
| 809 | Yakaze | 9:30.13 | 0 | 0 |
| 810 | Luxorys | 9:39.51 | 0 | 0 |
| 811 | maltejoosxd | 10:55.30 | 0 | 0 |
| 812 | Gustavlw | 10:57.10 | 0 | 0 |
| 813 | Koimp | 10:57.31 | 0 | 0 |
| 814 | Pop | 11:35.80 | 0 | 0 |
| 815 | cocatee | 11:41.77 | 0 | 0 |
| 816 | Pujaz | 15:05.80 | 0 | 0 |
| 817 | Bruko | 15:18.67 | 0 | 0 |
| 818 | Balrocky | 16:12.94 | 0 | 0 |
| 819 | Ichigo | 17:00:00.62 | 0 | 0 |
HoldGrip